Lower Salem, Ohio
Current Conditions -  °F | °C
As of 4:53 AM on Tuesday 27 Jan 2015 (Local Time) from KPKB Reporting Station
Overcast Overcast  
Wind Chill: 13°   Ceiling: 2000
Heat Index: 20°   Visibility: 10mi
Dew Point: 13°   Wind: 5mph
Humidity: 74%   Direction: 330°NNW
Pressure: 29.93"   Gusts: NA
Location:  39.56°N, 81.4°W
Report Text: KPKB 270953Z AUTO 33004KT 10SM OVC020 M07/M11 A2993 RMK AO2 SLP146 T10671106
Loading
Personal Weather Stations






























Interactive Weather Map New forecast layout! Learn more

10-Day Weather Forecast

Advertisements
Track Severe Weather on mobile